sensor_id;sensor_type;location;lat;lon;timestamp;pressure;altitude;pressure_sealevel;temperature;humidity
46174;BME280;31897;52.420;13.498;2022-07-06T00:00:36;101700;;;18.27136;21.95512
46174;BME280;31897;52.420;13.498;2022-07-06T00:03:37;101700;;;18.2355;22.07093
46174;BME280;31897;52.420;13.498;2022-07-06T00:06:38;101700;;;18.2523;22.06416
46174;BME280;31897;52.420;13.498;2022-07-06T00:09:39;101700;;;18.21159;22.15614
46174;BME280;31897;52.420;13.498;2022-07-06T00:12:40;101700;;;18.18962;22.21722
46174;BME280;31897;52.420;13.498;2022-07-06T00:15:40;101700;;;18.13987;22.3276
46174;BME280;31897;52.420;13.498;2022-07-06T00:18:41;101700;;;18.09206;22.43786
46174;BME280;31897;52.420;13.498;2022-07-06T00:21:42;101700;;;18.08559;22.47419
46174;BME280;31897;52.420;13.498;2022-07-06T00:24:43;101700;;;18.06427;22.56523
46174;BME280;31897;52.420;13.498;2022-07-06T00:27:43;101700;;;18.07655;22.59472
46174;BME280;31897;52.420;13.498;2022-07-06T00:30:44;101700;;;18.0255;22.70507
46174;BME280;31897;52.420;13.498;2022-07-06T00:33:45;101700;;;17.97575;22.82735
46174;BME280;31897;52.420;13.498;2022-07-06T00:36:45;101700;;;17.95443;22.89433
46174;BME280;31897;52.420;13.498;2022-07-06T00:39:46;101700;;;17.92697;22.94355
46174;BME280;31897;52.420;13.498;2022-07-06T00:42:47;101700;;;17.90241;23.01665
46174;BME280;31897;52.420;13.498;2022-07-06T00:45:48;101700;;;17.89175;23.07114
46174;BME280;31897;52.420;13.498;2022-07-06T00:48:49;101700;;;17.87205;23.15603
46174;BME280;31897;52.420;13.498;2022-07-06T00:51:50;101700;;;17.87754;23.1738
46174;BME280;31897;52.420;13.498;2022-07-06T00:54:51;101700;;;17.86397;23.2284
46174;BME280;31897;52.420;13.498;2022-07-06T00:57:52;101700;;;17.84297;23.27732
46174;BME280;31897;52.420;13.498;2022-07-06T01:00:53;101700;;;17.82908;23.40395
46174;BME280;31897;52.420;13.498;2022-07-06T01:03:53;101700;;;17.81293;23.42863
46174;BME280;31897;52.420;13.498;2022-07-06T01:06:54;101700;;;17.79483;23.50741
46174;BME280;31897;52.420;13.498;2022-07-06T01:09:57;101700;;;17.7761;23.5382
46174;BME280;31897;52.420;13.498;2022-07-06T01:12:58;101700;;;17.75671;23.56302
46174;BME280;31897;52.420;13.498;2022-07-06T01:15:59;101700;;;17.72311;23.61842
46174;BME280;31897;52.420;13.498;2022-07-06T01:19:00;101700;;;17.69727;23.66149
46174;BME280;31897;52.420;13.498;2022-07-06T01:22:01;101700;;;17.65268;23.74133
46174;BME280;31897;52.420;13.498;2022-07-06T01:25:02;101700;;;17.57515;23.8525
46174;BME280;31897;52.420;13.498;2022-07-06T01:28:03;101700;;;17.53703;23.95002
46174;BME280;31897;52.420;13.498;2022-07-06T01:31:03;101700;;;17.48243;24.0302
46174;BME280;31897;52.420;13.498;2022-07-06T01:34:04;101700;;;17.42815;24.08036
46174;BME280;31897;52.420;13.498;2022-07-06T01:37:05;101700;;;17.39972;24.12948
46174;BME280;31897;52.420;13.498;2022-07-06T01:40:06;101700;;;17.34319;24.23366
46174;BME280;31897;52.420;13.498;2022-07-06T01:43:07;101700;;;17.30991;24.28294
46174;BME280;31897;52.420;13.498;2022-07-06T01:46:08;101700;;;17.29731;24.36136
46174;BME280;31897;52.420;13.498;2022-07-06T01:49:09;101700;;;17.30022;24.38521
46174;BME280;31897;52.420;13.498;2022-07-06T01:52:10;101700;;;17.29311;24.46341
46174;BME280;31897;52.420;13.498;2022-07-06T01:55:11;101700;;;17.26597;24.50643
46174;BME280;31897;52.420;13.498;2022-07-06T01:58:11;101700;;;17.26824;24.53031
46174;BME280;31897;52.420;13.498;2022-07-06T02:01:13;101700;;;17.26145;24.56054
46174;BME280;31897;52.420;13.498;2022-07-06T02:04:14;101700;;;17.28277;24.50576
46174;BME280;31897;52.420;13.498;2022-07-06T02:07:15;101700;;;17.26371;24.53648
46174;BME280;31897;52.420;13.498;2022-07-06T02:10:16;101700;;;17.29182;24.52339
46174;BME280;31897;52.420;13.498;2022-07-06T02:13:17;101700;;;17.2902;24.57738
46174;BME280;31897;52.420;13.498;2022-07-06T02:16:18;101700;;;17.29602;24.60113
46174;BME280;31897;52.420;13.498;2022-07-06T02:19:18;101700;;;17.32251;24.5821
46174;BME280;31897;52.420;13.498;2022-07-06T02:22:19;101700;;;17.34351;24.55131
46174;BME280;31897;52.420;13.498;2022-07-06T02:25:20;101700;;;17.31217;24.57053
46174;BME280;31897;52.420;13.498;2022-07-06T02:28:20;101700;;;17.28213;24.52976
46174;BME280;31897;52.420;13.498;2022-07-06T02:31:21;101700;;;17.22204;24.5561
46174;BME280;31897;52.420;13.498;2022-07-06T02:34:22;101700;;;17.19296;24.59918
46174;BME280;31897;52.420;13.498;2022-07-06T02:37:23;101700;;;17.16195;24.87597
46174;BME280;31897;52.420;13.498;2022-07-06T02:40:23;101700;;;17.07278;25.16091
46174;BME280;31897;52.420;13.498;2022-07-06T02:43:24;101700;;;16.99815;25.43916
46174;BME280;31897;52.420;13.498;2022-07-06T02:46:25;101700;;;16.92547;25.62146
46174;BME280;31897;52.420;13.498;2022-07-06T02:49:26;101700;;;16.84082;25.86398
46174;BME280;31897;52.420;13.498;2022-07-06T02:52:27;101700;;;16.78946;26.02141
46174;BME280;31897;52.420;13.498;2022-07-06T02:55:28;101700;;;16.77976;26.08758
46174;BME280;31897;52.420;13.498;2022-07-06T02:58:29;101700;;;16.81078;26.08048
46174;BME280;31897;52.420;13.498;2022-07-06T03:01:29;101700;;;16.79818;26.15273
46174;BME280;31897;52.420;13.498;2022-07-06T03:04:30;101700;;;16.79495;26.26651
46174;BME280;31897;52.420;13.498;2022-07-06T03:07:31;101700;;;16.76878;26.25549
46174;BME280;31897;52.420;13.498;2022-07-06T03:10:32;101700;;;16.77524;26.28518
46174;BME280;31897;52.420;13.498;2022-07-06T03:13:32;101700;;;16.81272;26.29582
46174;BME280;31897;52.420;13.498;2022-07-06T03:16:33;101700;;;16.83727;26.3129
46174;BME280;31897;52.420;13.498;2022-07-06T03:19:34;101700;;;16.8237;26.33133
46174;BME280;31897;52.420;13.498;2022-07-06T03:22:35;101700;;;16.7817;26.37469
46174;BME280;31897;52.420;13.498;2022-07-06T03:25:35;101700;;;16.79301;26.43412
46174;BME280;31897;52.420;13.498;2022-07-06T03:28:36;101700;;;16.85859;26.39592
46174;BME280;31897;52.420;13.498;2022-07-06T03:31:37;101800;;;16.84631;26.51004
46174;BME280;31897;52.420;13.498;2022-07-06T03:34:37;101800;;;16.76846;26.90757
46174;BME280;31897;52.420;13.498;2022-07-06T03:37:38;101700;;;16.71612;27.39378
46174;BME280;31897;52.420;13.498;2022-07-06T03:40:39;101700;;;16.58528;27.87034
46174;BME280;31897;52.420;13.498;2022-07-06T03:43:40;101700;;;16.50807;28.37479
46174;BME280;31897;52.420;13.498;2022-07-06T03:46:40;101700;;;16.34524;28.86359
46174;BME280;31897;52.420;13.498;2022-07-06T03:49:41;101700;;;16.20148;29.32157
46174;BME280;31897;52.420;13.498;2022-07-06T03:52:42;101700;;;16.1569;29.71083
46174;BME280;31897;52.420;13.498;2022-07-06T03:55:43;101700;;;16.1149;30.04021
46174;BME280;31897;52.420;13.498;2022-07-06T03:58:44;101700;;;16.07969;30.29177
46174;BME280;31897;52.420;13.498;2022-07-06T04:01:45;101700;;;16.05869;30.38181
46174;BME280;31897;52.420;13.498;2022-07-06T04:04:45;101700;;;16.04157;30.47175
46174;BME280;31897;52.420;13.498;2022-07-06T04:07:46;101700;;;16.01217;30.5083
46174;BME280;31897;52.420;13.498;2022-07-06T04:10:47;101700;;;16.00151;30.58612
46174;BME280;31897;52.420;13.498;2022-07-06T04:13:48;101700;;;16.00894;30.67541
46174;BME280;31897;52.420;13.498;2022-07-06T04:16:48;101700;;;16.04609;30.68043
46174;BME280;31897;52.420;13.498;2022-07-06T04:19:50;101700;;;16.06547;30.7217
46174;BME280;31897;52.420;13.498;2022-07-06T04:22:51;101700;;;16.11684;30.70847
46174;BME280;31897;52.420;13.498;2022-07-06T04:25:52;101800;;;16.10779;30.66693
46174;BME280;31897;52.420;13.498;2022-07-06T04:28:53;101700;;;16.13267;30.6305
46174;BME280;31897;52.420;13.498;2022-07-06T04:31:53;101700;;;16.07161;30.70365
46174;BME280;31897;52.420;13.498;2022-07-06T04:34:54;101700;;;16.1233;30.73217
46174;BME280;31897;52.420;13.498;2022-07-06T04:37:55;101700;;;16.15432;30.46287
46174;BME280;31897;52.420;13.498;2022-07-06T04:40:56;101700;;;16.14721;30.3258
46174;BME280;31897;52.420;13.498;2022-07-06T04:43:56;101700;;;16.14398;30.34976
46174;BME280;31897;52.420;13.498;2022-07-06T04:46:57;101700;;;16.15141;30.42117
46174;BME280;31897;52.420;13.498;2022-07-06T04:49:58;101700;;;16.12686;30.3144
46174;BME280;31897;52.420;13.498;2022-07-06T04:52:59;101700;;;16.1653;30.15823
46174;BME280;31897;52.420;13.498;2022-07-06T04:55:59;101700;;;16.2199;29.94786
46174;BME280;31897;52.420;13.498;2022-07-06T04:59:00;101700;;;16.36592;29.69909
46174;BME280;31897;52.420;13.498;2022-07-06T05:02:01;101700;;;16.51324;29.36049
46174;BME280;31897;52.420;13.498;2022-07-06T05:05:02;101700;;;16.64311;29.2552
46174;BME280;31897;52.420;13.498;2022-07-06T05:08:03;101700;;;16.67638;28.97334
46174;BME280;31897;52.420;13.498;2022-07-06T05:11:04;101700;;;16.61468;28.81977
46174;BME280;31897;52.420;13.498;2022-07-06T05:14:04;101700;;;16.59626;28.5992
46174;BME280;31897;52.420;13.498;2022-07-06T05:17:05;101700;;;16.58011;28.48016
46174;BME280;31897;52.420;13.498;2022-07-06T05:20:06;101700;;;16.72032;28.33838
46174;BME280;31897;52.420;13.498;2022-07-06T05:23:07;101700;;;16.73777;28.16446
46174;BME280;31897;52.420;13.498;2022-07-06T05:26:08;101700;;;16.84018;28.06557
46174;BME280;31897;52.420;13.498;2022-07-06T05:29:09;101700;;;16.99848;27.8811
46174;BME280;31897;52.420;13.498;2022-07-06T05:32:10;101700;;;16.90576;28.02762
46174;BME280;31897;52.420;13.498;2022-07-06T05:35:10;101700;;;16.99977;27.85713
46174;BME280;31897;52.420;13.498;2022-07-06T05:38:11;101700;;;16.89057;27.84267
46174;BME280;31897;52.420;13.498;2022-07-06T05:41:12;101800;;;17.00332;27.60571
46174;BME280;31897;52.420;13.498;2022-07-06T05:44:13;101700;;;17.18133;27.34251
46174;BME280;31897;52.420;13.498;2022-07-06T05:47:13;101700;;;17.30313;27.29057
46174;BME280;31897;52.420;13.498;2022-07-06T05:50:14;101700;;;17.41943;26.90932
46174;BME280;31897;52.420;13.498;2022-07-06T05:53:15;101800;;;17.44463;26.60292
46174;BME280;31897;52.420;13.498;2022-07-06T05:56:15;101700;;;17.18489;26.64191
46174;BME280;31897;52.420;13.498;2022-07-06T05:59:16;101700;;;17.14612;26.49357
46174;BME280;31897;52.420;13.498;2022-07-06T06:02:17;101700;;;17.23302;26.38872
46174;BME280;31897;52.420;13.498;2022-07-06T06:05:18;101700;;;17.30894;26.22431
46174;BME280;31897;52.420;13.498;2022-07-06T06:08:18;101700;;;17.39455;26.04151
46174;BME280;31897;52.420;13.498;2022-07-06T06:11:19;101700;;;17.42008;25.91475
46174;BME280;31897;52.420;13.498;2022-07-06T06:14:20;101700;;;17.41038;25.81924
46174;BME280;31897;52.420;13.498;2022-07-06T06:17:21;101700;;;17.49503;25.60636
46174;BME280;31897;52.420;13.498;2022-07-06T06:20:21;101800;;;17.51474;25.35987
46174;BME280;31897;52.420;13.498;2022-07-06T06:23:22;101800;;;17.54446;25.24485
46174;BME280;31897;52.420;13.498;2022-07-06T06:26:23;101700;;;17.63847;25.19931
46174;BME280;31897;52.420;13.498;2022-07-06T06:29:24;101700;;;17.68176;25.16768
46174;BME280;31897;52.420;13.498;2022-07-06T06:32:24;101700;;;17.76802;25.1164
46174;BME280;31897;52.420;13.498;2022-07-06T06:35:25;101700;;;18.46714;24.18227
46174;BME280;31897;52.420;13.498;2022-07-06T06:38:28;101700;;;19.84116;22.52845
46174;BME280;31897;52.420;13.498;2022-07-06T06:41:29;101700;;;19.23249;23.29623
46174;BME280;31897;52.420;13.498;2022-07-06T06:44:30;101800;;;18.94367;23.65152
46174;BME280;31897;52.420;13.498;2022-07-06T06:47:30;101800;;;18.86807;23.84718
46174;BME280;31897;52.420;13.498;2022-07-06T06:50:31;101800;;;19.22215;23.393
46174;BME280;31897;52.420;13.498;2022-07-06T06:53:32;101700;;;19.99204;22.67853
46174;BME280;31897;52.420;13.498;2022-07-06T06:56:33;101800;;;19.83341;22.86043
46174;BME280;31897;52.420;13.498;2022-07-06T06:59:33;101800;;;19.42504;23.17353
46174;BME280;31897;52.420;13.498;2022-07-06T07:02:34;101800;;;19.10488;23.28965
46174;BME280;31897;52.420;13.498;2022-07-06T07:05:35;101800;;;18.86677;23.46226
46174;BME280;31897;52.420;13.498;2022-07-06T07:08:36;101800;;;18.9162;23.44813
46174;BME280;31897;52.420;13.498;2022-07-06T07:11:37;101800;;;19.03122;23.34095
46174;BME280;31897;52.420;13.498;2022-07-06T07:14:37;101800;;;18.78536;23.40556
46174;BME280;31897;52.420;13.498;2022-07-06T07:17:38;101800;;;18.66098;23.38678
46174;BME280;31897;52.420;13.498;2022-07-06T07:20:39;101800;;;18.65743;23.42902
46174;BME280;31897;52.420;13.498;2022-07-06T07:23:40;101800;;;18.82736;23.2173
46174;BME280;31897;52.420;13.498;2022-07-06T07:26:40;101800;;;19.01733;23.01055
46174;BME280;31897;52.420;13.498;2022-07-06T07:29:41;101800;;;19.07806;23.038
46174;BME280;31897;52.420;13.498;2022-07-06T07:32:42;101800;;;19.0422;23.08169
46174;BME280;31897;52.420;13.498;2022-07-06T07:35:42;101800;;;19.13912;22.89685
46174;BME280;31897;52.420;13.498;2022-07-06T07:38:43;101800;;;19.27804;22.77038
46174;BME280;31897;52.420;13.498;2022-07-06T07:41:44;101800;;;19.14882;22.86035
46174;BME280;31897;52.420;13.498;2022-07-06T07:44:45;101800;;;18.98437;22.77125
46174;BME280;31897;52.420;13.498;2022-07-06T07:47:45;101800;;;19.07451;22.62282
46174;BME280;31897;52.420;13.498;2022-07-06T07:50:46;101800;;;19.14139;22.52955
46174;BME280;31897;52.420;13.498;2022-07-06T07:53:47;101800;;;19.06159;22.61135
46174;BME280;31897;52.420;13.498;2022-07-06T07:56:48;101800;;;19.35978;22.37524
46174;BME280;31897;52.420;13.498;2022-07-06T07:59:48;101800;;;19.4483;22.06397
46174;BME280;31897;52.420;13.498;2022-07-06T08:02:49;101800;;;19.49547;21.8087
46174;BME280;31897;52.420;13.498;2022-07-06T08:05:50;101800;;;19.45929;21.62355
46174;BME280;31897;52.420;13.498;2022-07-06T08:08:51;101800;;;19.85861;21.28519
46174;BME280;31897;52.420;13.498;2022-07-06T08:11:51;101800;;;19.75813;21.44073
46174;BME280;31897;52.420;13.498;2022-07-06T08:14:52;101800;;;19.71904;21.06264
46174;BME280;31897;52.420;13.498;2022-07-06T08:17:53;101800;;;19.53456;21.16793
46174;BME280;31897;52.420;13.498;2022-07-06T08:20:54;101800;;;19.61469;21.01337
46174;BME280;31897;52.420;13.498;2022-07-06T08:23:55;101800;;;19.77461;20.87901
46174;BME280;31897;52.420;13.498;2022-07-06T08:26:56;101800;;;20.09445;20.24775
46174;BME280;31897;52.420;13.498;2022-07-06T08:29:56;101800;;;20.15325;19.91874
46174;BME280;31897;52.420;13.498;2022-07-06T08:32:57;101800;;;20.16133;19.81567
46174;BME280;31897;52.420;13.498;2022-07-06T08:35:58;101800;;;20.08508;19.95842
46174;BME280;31897;52.420;13.498;2022-07-06T08:38:59;101800;;;20.05407;20.00224
46174;BME280;31897;52.420;13.498;2022-07-06T08:42:00;101800;;;19.99171;20.02953
46174;BME280;31897;52.420;13.498;2022-07-06T08:45:02;101800;;;19.87734;19.95079
46174;BME280;31897;52.420;13.498;2022-07-06T08:48:04;101800;;;19.90868;19.90696
46174;BME280;31897;52.420;13.498;2022-07-06T08:51:05;101800;;;19.90384;20.03395
46174;BME280;31897;52.420;13.498;2022-07-06T08:54:06;101800;;;19.80918;19.78527
46174;BME280;31897;52.420;13.498;2022-07-06T08:57:07;101800;;;19.66056;19.76265
46174;BME280;31897;52.420;13.498;2022-07-06T09:00:08;101800;;;19.59433;19.386
46174;BME280;31897;52.420;13.498;2022-07-06T09:03:10;101800;;;19.58432;19.48303
46174;BME280;31897;52.420;13.498;2022-07-06T09:06:12;101800;;;19.45509;19.68867
46174;BME280;31897;52.420;13.498;2022-07-06T09:09:18;101800;;;19.4244;19.70229
46174;BME280;31897;52.420;13.498;2022-07-06T09:12:19;101800;;;19.45832;19.75483
46174;BME280;31897;52.420;13.498;2022-07-06T09:15:23;101800;;;19.54684;19.7443
46174;BME280;31897;52.420;13.498;2022-07-06T09:18:24;101800;;;19.52939;19.61251
46174;BME280;31897;52.420;13.498;2022-07-06T09:21:26;101800;;;19.37077;19.36739
46174;BME280;31897;52.420;13.498;2022-07-06T09:24:27;101800;;;19.07677;19.28615
46174;BME280;31897;52.420;13.498;2022-07-06T09:27:28;101800;;;18.92234;19.45674
46174;BME280;31897;52.420;13.498;2022-07-06T09:30:29;101800;;;18.84578;19.52691
46174;BME280;31897;52.420;13.498;2022-07-06T09:33:30;101800;;;18.74724;19.28508
46174;BME280;31897;52.420;13.498;2022-07-06T09:36:38;101800;;;18.65226;19.18161
46174;BME280;31897;52.420;13.498;2022-07-06T09:39:39;101800;;;18.71945;19.14803
46174;BME280;31897;52.420;13.498;2022-07-06T09:42:40;101800;;;18.74918;19.02003
46174;BME280;31897;52.420;13.498;2022-07-06T09:45:42;101800;;;18.79053;18.90345
46174;BME280;31897;52.420;13.498;2022-07-06T09:48:43;101800;;;18.86064;18.71906
46174;BME280;31897;52.420;13.498;2022-07-06T09:51:45;101800;;;18.90619;18.3612
46174;BME280;31897;52.420;13.498;2022-07-06T09:54:48;101800;;;18.98599;18.25448
46174;BME280;31897;52.420;13.498;2022-07-06T09:57:52;101800;;;19.07612;18.08685
46174;BME280;31897;52.420;13.498;2022-07-06T10:00:53;101800;;;19.15657;17.97999
46174;BME280;31897;52.420;13.498;2022-07-06T10:03:54;101800;;;19.2438;17.8305
46174;BME280;31897;52.420;13.498;2022-07-06T10:06:55;101800;;;19.3824;17.62984
46174;BME280;31897;52.420;13.498;2022-07-06T10:09:57;101800;;;19.51453;17.57423
46174;BME280;31897;52.420;13.498;2022-07-06T10:12:58;101800;;;19.72227;17.36947
46174;BME280;31897;52.420;13.498;2022-07-06T10:15:59;101800;;;19.81564;17.47292
46174;BME280;31897;52.420;13.498;2022-07-06T10:19:00;101800;;;19.8389;17.61051
46174;BME280;31897;52.420;13.498;2022-07-06T10:22:02;101800;;;19.94551;17.7133
46174;BME280;31897;52.420;13.498;2022-07-06T10:25:04;101800;;;20.00819;17.76419
46174;BME280;31897;52.420;13.498;2022-07-06T10:28:05;101800;;;19.98105;17.82005
46174;BME280;31897;52.420;13.498;2022-07-06T10:31:06;101800;;;20.0405;17.7926
46174;BME280;31897;52.420;13.498;2022-07-06T10:34:10;101800;;;20.02467;17.73911
46174;BME280;31897;52.420;13.498;2022-07-06T10:37:21;101800;;;20.056;17.62863
46174;BME280;31897;52.420;13.498;2022-07-06T10:40:27;101800;;;20.19525;17.59066
46174;BME280;31897;52.420;13.498;2022-07-06T10:43:32;101800;;;20.27279;17.42312
46174;BME280;31897;52.420;13.498;2022-07-06T10:46:33;101800;;;20.45823;17.29175
46174;BME280;31897;52.420;13.498;2022-07-06T10:49:34;101800;;;20.62042;17.06478
46174;BME280;31897;52.420;13.498;2022-07-06T10:52:49;101800;;;20.66403;16.97758
46174;BME280;31897;52.420;13.498;2022-07-06T10:55:50;101800;;;20.86757;17.02645
46174;BME280;31897;52.420;13.498;2022-07-06T10:58:51;101800;;;20.959;16.94856
46174;BME280;31897;52.420;13.498;2022-07-06T11:05:40;101800;;;21.25688;16.70725
46174;BME280;31897;52.420;13.498;2022-07-06T11:08:43;101800;;;21.30147;16.5471
46174;BME280;31897;52.420;13.498;2022-07-06T11:11:44;101800;;;21.40582;16.6198
46174;BME280;31897;52.420;13.498;2022-07-06T11:14:45;101800;;;21.56381;16.70153
46174;BME280;31897;52.420;13.498;2022-07-06T11:17:50;101800;;;21.73181;16.67963
46174;BME280;31897;52.420;13.498;2022-07-06T11:21:14;101800;;;21.88269;16.34317
46174;BME280;31897;52.420;13.498;2022-07-06T11:24:16;101800;;;21.84295;16.34552
46174;BME280;31897;52.420;13.498;2022-07-06T11:27:17;101800;;;21.68561;16.06364
46174;BME280;31897;52.420;13.498;2022-07-06T11:30:18;101800;;;22.0607;15.91983
46174;BME280;31897;52.420;13.498;2022-07-06T11:33:27;101800;;;21.99286;16.01496
46174;BME280;31897;52.420;13.498;2022-07-06T11:36:28;101800;;;21.78124;16.33702
46174;BME280;31897;52.420;13.498;2022-07-06T11:39:29;101800;;;21.51599;16.577
46174;BME280;31897;52.420;13.498;2022-07-06T11:42:30;101800;;;21.23168;16.84806
46174;BME280;31897;52.420;13.498;2022-07-06T11:45:31;101800;;;20.91668;17.10234
46174;BME280;31897;52.420;13.498;2022-07-06T11:48:32;101800;;;20.707;17.41079
46174;BME280;31897;52.420;13.498;2022-07-06T11:51:33;101800;;;20.67922;17.51521
46174;BME280;31897;52.420;13.498;2022-07-06T11:54:35;101800;;;20.80683;17.56251
46174;BME280;31897;52.420;13.498;2022-07-06T11:57:35;101800;;;20.91636;17.48373
46174;BME280;31897;52.420;13.498;2022-07-06T12:00:37;101800;;;20.99422;17.27955
46174;BME280;31897;52.420;13.498;2022-07-06T12:03:37;101800;;;21.12087;17.12701
46174;BME280;31897;52.420;13.498;2022-07-06T12:06:38;101800;;;21.44588;16.96903
46174;BME280;31897;52.420;13.498;2022-07-06T12:09:40;101800;;;21.76605;16.81108
46174;BME280;31897;52.420;13.498;2022-07-06T12:12:41;101700;;;22.05392;16.60014
46174;BME280;31897;52.420;13.498;2022-07-06T12:15:41;101700;;;22.04003;16.44314
46174;BME280;31897;52.420;13.498;2022-07-06T12:18:42;101700;;;22.13178;16.38309
46174;BME280;31897;52.420;13.498;2022-07-06T12:21:45;101700;;;22.15246;16.05399
46174;BME280;31897;52.420;13.498;2022-07-06T12:24:46;101700;;;22.05941;15.8592
46174;BME280;31897;52.420;13.498;2022-07-06T12:27:47;101700;;;21.88107;16.08233
46174;BME280;31897;52.420;13.498;2022-07-06T12:30:47;101700;;;21.77284;16.19798
46174;BME280;31897;52.420;13.498;2022-07-06T12:33:55;101700;;;21.70402;16.28092
46174;BME280;31897;52.420;13.498;2022-07-06T12:36:57;101800;;;21.7751;16.36772
46174;BME280;31897;52.420;13.498;2022-07-06T12:39:58;101800;;;21.8255;16.38902
46174;BME280;31897;52.420;13.498;2022-07-06T12:42:59;101700;;;22.0187;16.4019
46174;BME280;31897;52.420;13.498;2022-07-06T12:45:59;101700;;;22.07331;16.34405
46174;BME280;31897;52.420;13.498;2022-07-06T12:49:01;101700;;;22.11175;16.31749
46174;BME280;31897;52.420;13.498;2022-07-06T12:52:08;101700;;;22.38734;16.28295
46174;BME280;31897;52.420;13.498;2022-07-06T12:55:09;101700;;;22.65808;16.18785
46174;BME280;31897;52.420;13.498;2022-07-06T12:58:15;101700;;;22.74952;16.23712
46174;BME280;31897;52.420;13.498;2022-07-06T13:01:18;101700;;;22.90977;16.32488
46174;BME280;31897;52.420;13.498;2022-07-06T13:04:19;101700;;;23.02155;16.21482
46174;BME280;31897;52.420;13.498;2022-07-06T13:07:20;101700;;;23.01865;15.97165
46174;BME280;31897;52.420;13.498;2022-07-06T13:10:21;101700;;;22.99894;16.10059
46174;BME280;31897;52.420;13.498;2022-07-06T13:13:22;101700;;;22.71236;16.08734
46174;BME280;31897;52.420;13.498;2022-07-06T13:16:23;101700;;;22.47102;16.26583
46174;BME280;31897;52.420;13.498;2022-07-06T13:19:23;101700;;;22.39186;16.3495
46174;BME280;31897;52.420;13.498;2022-07-06T13:22:24;101700;;;22.49202;16.41039
46174;BME280;31897;52.420;13.498;2022-07-06T13:25:25;101700;;;22.5547;16.52825
46174;BME280;31897;52.420;13.498;2022-07-06T13:28:26;101700;;;22.5589;16.43077
46174;BME280;31897;52.420;13.498;2022-07-06T13:31:27;101700;;;22.51399;16.28151
46174;BME280;31897;52.420;13.498;2022-07-06T13:34:28;101700;;;22.43257;16.18913
46174;BME280;31897;52.420;13.498;2022-07-06T13:37:28;101700;;;22.27265;16.10147
46174;BME280;31897;52.420;13.498;2022-07-06T13:40:29;101700;;;22.27685;16.01622
46174;BME280;31897;52.420;13.498;2022-07-06T13:43:30;101700;;;22.3266;16.06787
46174;BME280;31897;52.420;13.498;2022-07-06T13:46:31;101700;;;22.45131;16.04219
46174;BME280;31897;52.420;13.498;2022-07-06T13:49:32;101700;;;22.69718;15.86938
46174;BME280;31897;52.420;13.498;2022-07-06T13:52:32;101700;;;23.02155;15.44822
46174;BME280;31897;52.420;13.498;2022-07-06T13:55:33;101700;;;23.05677;15.70772
46174;BME280;31897;52.420;13.498;2022-07-06T13:58:34;101700;;;22.75275;15.68969
46174;BME280;31897;52.420;13.498;2022-07-06T14:01:35;101700;;;22.40931;15.76521
46174;BME280;31897;52.420;13.498;2022-07-06T14:04:36;101700;;;22.0565;16.01115
46174;BME280;31897;52.420;13.498;2022-07-06T14:07:36;101700;;;21.8465;16.22395
46174;BME280;31897;52.420;13.498;2022-07-06T14:10:37;101700;;;21.81678;16.33493
46174;BME280;31897;52.420;13.498;2022-07-06T14:13:38;101700;;;21.74829;16.43603
46174;BME280;31897;52.420;13.498;2022-07-06T14:16:39;101700;;;21.70144;16.5237
46174;BME280;31897;52.420;13.498;2022-07-06T14:19:39;101700;;;21.8171;16.58972
46174;BME280;31897;52.420;13.498;2022-07-06T14:22:40;101700;;;21.89916;16.4939
46174;BME280;31897;52.420;13.498;2022-07-06T14:25:41;101700;;;21.99803;16.32422
46174;BME280;31897;52.420;13.498;2022-07-06T14:28:42;101700;;;22.08784;16.34319
46174;BME280;31897;52.420;13.498;2022-07-06T14:31:43;101700;;;22.08914;16.45846
46174;BME280;31897;52.420;13.498;2022-07-06T14:34:44;101700;;;22.00384;16.54238
46174;BME280;31897;52.420;13.498;2022-07-06T14:37:44;101700;;;21.936;16.58277
46174;BME280;31897;52.420;13.498;2022-07-06T14:40:45;101700;;;21.89206;16.54286
46174;BME280;31897;52.420;13.498;2022-07-06T14:43:46;101700;;;21.78706;16.43375
46174;BME280;31897;52.420;13.498;2022-07-06T14:46:47;101700;;;21.79675;16.48171
46174;BME280;31897;52.420;13.498;2022-07-06T14:49:47;101700;;;21.80418;16.45094
46174;BME280;31897;52.420;13.498;2022-07-06T14:52:48;101700;;;21.77866;16.45851
46174;BME280;31897;52.420;13.498;2022-07-06T14:55:49;101700;;;21.75216;16.40547
46174;BME280;31897;52.420;13.498;2022-07-06T14:58:50;101700;;;21.68012;16.41578
46174;BME280;31897;52.420;13.498;2022-07-06T15:01:51;101700;;;21.70144;16.45698
46174;BME280;31897;52.420;13.498;2022-07-06T15:04:52;101700;;;21.65265;16.52049